createdAt,value
2023-08-16T00:02:55.368Z,98796.56
2023-08-16T00:08:17.230Z,98794.28
2023-08-16T00:13:39.196Z,98801.78
2023-08-16T00:19:01.201Z,98782.72
2023-08-16T00:24:23.067Z,98783.44
2023-08-16T00:29:44.839Z,98765.75
2023-08-16T00:35:07.232Z,98746.28
2023-08-16T00:40:29.018Z,98768.84
2023-08-16T00:45:51.408Z,98787.84
2023-08-16T00:51:14.689Z,98768.19
2023-08-16T00:56:36.893Z,98769.91
2023-08-16T01:01:58.854Z,98769.03
2023-08-16T01:07:21.108Z,98769.03
2023-08-16T01:13:03.317Z,98741.00
2023-08-16T01:18:28.830Z,98736.28
2023-08-16T01:24:07.422Z,98733.13
2023-08-16T01:29:30.955Z,98741.25
2023-08-16T01:34:52.791Z,98742.72
2023-08-16T01:40:14.779Z,98738.81
2023-08-16T01:45:36.737Z,98734.59
2023-08-16T01:50:58.878Z,98735.69
2023-08-16T01:56:21.568Z,98738.94
2023-08-16T02:01:43.513Z,98722.25
2023-08-16T02:07:05.397Z,98735.44
2023-08-16T02:12:27.256Z,98732.13
2023-08-16T02:17:49.200Z,98720.56
2023-08-16T02:23:11.170Z,98719.03
2023-08-16T02:28:32.927Z,98712.09
2023-08-16T02:33:54.832Z,98711.16
2023-08-16T02:39:18.509Z,98698.63
2023-08-16T02:44:40.967Z,98698.22
2023-08-16T02:50:02.910Z,98687.22
2023-08-16T02:55:24.792Z,98695.88
2023-08-16T03:00:51.752Z,98701.09
2023-08-16T03:06:13.749Z,98698.88
2023-08-16T03:11:35.572Z,98702.97
2023-08-16T03:17:00.963Z,98707.44
2023-08-16T03:22:22.861Z,98710.06
2023-08-16T03:27:44.680Z,98723.06
2023-08-16T03:33:07.454Z,98730.84
2023-08-16T03:38:29.743Z,98757.00
2023-08-16T03:43:51.683Z,98754.97
2023-08-16T03:49:13.424Z,98765.03
2023-08-16T03:54:35.272Z,98779.84
2023-08-16T03:59:57.193Z,98804.13
2023-08-16T04:05:21.228Z,98833.03
2023-08-16T04:10:43.305Z,98837.91
2023-08-16T04:16:05.385Z,98837.50
2023-08-16T04:21:27.239Z,98850.47
2023-08-16T04:26:51.953Z,98835.38
2023-08-16T04:32:13.891Z,98842.91
2023-08-16T04:37:35.711Z,98826.69
2023-08-16T04:42:57.633Z,98816.63
2023-08-16T04:48:19.513Z,98823.50
2023-08-16T04:53:41.381Z,98826.28
2023-08-16T04:59:03.379Z,98820.19
2023-08-16T05:04:25.315Z,98793.47
2023-08-16T05:09:47.205Z,98793.63
2023-08-16T05:15:09.956Z,98787.75
2023-08-16T05:20:31.734Z,98784.41
2023-08-16T05:25:53.568Z,98777.53
2023-08-16T05:31:16.559Z,98763.81
2023-08-16T05:36:48.503Z,98775.06
2023-08-16T05:42:10.412Z,98780.78
2023-08-16T05:47:32.659Z,98780.03
2023-08-16T05:52:54.515Z,98789.47
2023-08-16T05:58:16.336Z,98784.31
2023-08-16T06:03:40.048Z,98790.69
2023-08-16T06:09:02.183Z,98784.41
2023-08-16T06:14:24.023Z,98783.75
2023-08-16T06:19:45.901Z,98787.84
2023-08-16T06:25:09.419Z,98782.50
2023-08-16T06:30:31.369Z,98782.19
2023-08-16T06:35:53.411Z,98787.47
2023-08-16T06:41:15.863Z,98793.50
2023-08-16T06:46:37.891Z,98796.41
2023-08-16T06:51:59.820Z,98789.25
2023-08-16T06:57:22.003Z,98788.19
2023-08-16T07:02:44.503Z,98794.59
2023-08-16T07:08:07.365Z,98787.97
2023-08-16T07:13:29.293Z,98790.94
2023-08-16T07:18:53.355Z,98791.41
2023-08-16T07:24:15.392Z,98793.44
2023-08-16T07:29:37.210Z,98788.03
2023-08-16T07:34:59.144Z,98791.41
2023-08-16T07:40:21.041Z,98780.59
2023-08-16T07:45:42.925Z,98790.34
2023-08-16T07:51:04.914Z,98789.59
2023-08-16T07:56:26.802Z,98797.00
2023-08-16T08:01:48.675Z,98792.56
2023-08-16T08:07:12.429Z,98790.22
2023-08-16T08:12:34.462Z,98783.69
2023-08-16T08:17:57.363Z,98786.00
2023-08-16T08:23:19.231Z,98790.81
2023-08-16T08:28:41.110Z,98797.03
2023-08-16T08:34:03.002Z,98793.75
2023-08-16T08:39:24.881Z,98776.53
2023-08-16T08:44:46.762Z,98777.84
2023-08-16T08:50:09.113Z,98787.19
2023-08-16T08:55:34.181Z,98783.97
2023-08-16T09:00:56.144Z,98780.53
2023-08-16T09:06:18.045Z,98781.41
2023-08-16T09:11:40.180Z,98786.63
2023-08-16T09:17:02.007Z,98773.44
2023-08-16T09:22:24.088Z,98765.56
2023-08-16T09:27:46.274Z,98760.59
2023-08-16T09:33:08.862Z,98747.00
2023-08-16T09:44:06.920Z,98732.53
2023-08-16T09:49:28.904Z,98731.34
2023-08-16T09:54:55.468Z,98723.25
2023-08-16T10:00:17.715Z,98733.56
2023-08-16T10:11:05.452Z,98716.97
2023-08-16T10:16:31.882Z,98714.91
2023-08-16T10:21:55.284Z,98713.28
2023-08-16T10:27:20.814Z,98712.84
2023-08-16T10:32:46.032Z,98715.78
2023-08-16T10:38:07.872Z,98716.66
2023-08-16T10:43:35.363Z,98701.44
2023-08-16T10:49:01.671Z,98689.06
2023-08-16T10:54:33.703Z,98689.66
2023-08-16T11:00:08.755Z,98684.78
2023-08-16T11:05:35.002Z,98683.25
2023-08-16T11:10:57.613Z,98672.03
2023-08-16T11:16:19.746Z,98667.13
2023-08-16T11:21:45.587Z,98667.13
2023-08-16T11:27:07.909Z,98660.41
2023-08-16T11:32:41.293Z,98666.00
2023-08-16T11:38:03.267Z,98670.19
2023-08-16T11:43:29.234Z,98658.09
2023-08-16T11:48:51.098Z,98641.03
2023-08-16T11:54:31.252Z,98645.81
2023-08-16T11:59:57.024Z,98631.06
2023-08-16T12:05:19.044Z,98636.25
2023-08-16T12:10:41.389Z,98625.53
2023-08-16T12:16:03.311Z,98622.97
2023-08-16T12:21:26.086Z,98623.88
2023-08-16T12:26:47.935Z,98615.47
2023-08-16T12:32:09.704Z,98601.00
2023-08-16T12:37:32.986Z,98590.94
2023-08-16T12:43:01.800Z,98583.00
2023-08-16T12:48:23.722Z,98583.22
2023-08-16T12:53:46.671Z,98592.03
2023-08-16T12:59:21.197Z,98574.31
2023-08-16T13:10:23.897Z,98573.66
2023-08-16T13:15:51.165Z,98561.00
2023-08-16T13:37:45.388Z,98521.75
2023-08-16T13:48:32.723Z,98530.72
2023-08-16T13:53:55.485Z,98504.03
2023-08-16T13:59:17.509Z,98499.13
2023-08-16T14:04:41.836Z,98493.31
2023-08-16T14:10:04.022Z,98494.25
2023-08-16T14:15:25.860Z,98490.88
2023-08-16T14:20:49.243Z,98500.09
2023-08-16T14:26:13.303Z,98509.97
2023-08-16T14:31:35.191Z,98515.00
2023-08-16T14:36:57.111Z,98508.59
2023-08-16T14:42:20.701Z,98505.13
2023-08-16T14:47:42.703Z,98491.56
2023-08-16T14:53:05.566Z,98493.34
2023-08-16T14:58:27.377Z,98523.41
2023-08-16T15:03:49.405Z,98528.22
2023-08-16T15:09:11.396Z,98526.28
2023-08-16T15:14:33.290Z,98527.88
2023-08-16T15:19:55.872Z,98529.19
2023-08-16T15:25:17.770Z,98525.84
2023-08-16T15:30:39.541Z,98528.00
2023-08-16T15:36:01.482Z,98524.63
2023-08-16T15:41:23.279Z,98534.00
2023-08-16T15:46:45.277Z,98560.13
2023-08-16T15:52:07.318Z,98576.44
2023-08-16T15:57:29.326Z,98591.66
2023-08-16T16:02:51.303Z,98622.81
2023-08-16T16:08:13.129Z,98650.78
2023-08-16T16:13:34.998Z,98648.38
2023-08-16T16:18:56.850Z,98638.34
2023-08-16T16:24:18.707Z,98630.09
2023-08-16T16:29:40.693Z,98640.34
2023-08-16T16:35:03.449Z,98665.22
2023-08-16T16:40:25.539Z,98683.13
2023-08-16T16:45:47.464Z,98684.59
2023-08-16T16:51:09.295Z,98683.44
2023-08-16T16:56:31.168Z,98701.31
2023-08-16T17:01:53.213Z,98697.28
2023-08-16T17:07:15.490Z,98677.19
2023-08-16T17:12:37.438Z,98633.34
2023-08-16T17:17:59.439Z,98573.44
2023-08-16T17:23:21.977Z,98513.59
2023-08-16T17:28:43.842Z,98462.63
2023-08-16T17:34:05.943Z,98417.09
2023-08-16T17:39:27.840Z,98408.84
2023-08-16T17:44:49.794Z,98433.81
2023-08-16T17:50:11.677Z,98458.59
2023-08-16T17:55:33.478Z,98477.44
2023-08-16T18:00:56.839Z,98522.81
2023-08-16T18:06:19.086Z,98544.63
2023-08-16T18:11:40.892Z,98567.97
2023-08-16T18:17:02.803Z,98570.25
2023-08-16T18:22:24.850Z,98594.66
2023-08-16T18:27:46.599Z,98613.00
2023-08-16T18:33:08.462Z,98642.34
2023-08-16T18:38:30.356Z,98623.50
2023-08-16T18:43:52.192Z,98622.50
2023-08-16T18:49:14.348Z,98647.34
2023-08-16T18:54:36.175Z,98641.81
2023-08-16T18:59:58.374Z,98640.47
2023-08-16T19:05:20.186Z,98633.34
2023-08-16T19:10:43.518Z,98618.84
2023-08-16T19:16:05.467Z,98625.31
2023-08-16T19:21:27.483Z,98646.38
2023-08-16T19:26:49.652Z,98665.19
2023-08-16T19:32:11.623Z,98661.50
2023-08-16T19:37:33.574Z,98684.09
2023-08-16T19:42:55.421Z,98715.91
2023-08-16T19:48:17.672Z,98697.28
2023-08-16T19:53:39.516Z,98704.31
2023-08-16T19:59:01.393Z,98709.44
2023-08-16T20:04:23.372Z,98690.38
2023-08-16T20:09:45.143Z,98660.06
2023-08-16T20:15:08.420Z,98643.81
2023-08-16T20:20:30.310Z,98637.81
2023-08-16T20:25:52.116Z,98635.63
2023-08-16T20:31:14.044Z,98624.59
2023-08-16T20:36:35.944Z,98620.75
2023-08-16T20:41:57.787Z,98629.34
2023-08-16T20:47:19.575Z,98634.78
2023-08-16T20:52:43.042Z,98637.59
2023-08-16T20:58:06.129Z,98646.03
2023-08-16T21:03:27.951Z,98648.72
2023-08-16T21:08:49.871Z,98650.84
2023-08-16T21:14:11.678Z,98648.44
2023-08-16T21:19:37.587Z,98659.94
2023-08-16T21:24:59.571Z,98670.53
2023-08-16T21:30:21.549Z,98684.97
2023-08-16T21:35:43.355Z,98677.34
2023-08-16T21:41:05.170Z,98660.63
2023-08-16T21:46:27.295Z,98653.66
2023-08-16T21:51:49.270Z,98661.53
2023-08-16T21:57:11.173Z,98654.09
2023-08-16T22:02:33.049Z,98648.31
2023-08-16T22:07:54.913Z,98662.81
2023-08-16T22:13:20.467Z,98664.03
2023-08-16T22:18:42.316Z,98664.03
2023-08-16T22:24:04.446Z,98678.09
2023-08-16T22:29:26.317Z,98679.88
2023-08-16T22:34:48.275Z,98666.19
2023-08-16T22:40:10.263Z,98668.09
2023-08-16T22:45:32.105Z,98670.56
2023-08-16T22:50:54.363Z,98669.75
2023-08-16T22:56:16.248Z,98665.66
2023-08-16T23:01:38.099Z,98679.00
2023-08-16T23:06:59.907Z,98673.69
2023-08-16T23:12:21.673Z,98677.38
2023-08-16T23:17:43.756Z,98683.66
2023-08-16T23:23:06.064Z,98681.09
2023-08-16T23:28:27.960Z,98685.41
2023-08-16T23:33:49.821Z,98694.47
2023-08-16T23:39:11.621Z,98701.53
2023-08-16T23:44:33.433Z,98702.28
2023-08-16T23:49:55.274Z,98708.44
2023-08-16T23:55:17.181Z,98704.50
